You are not logged in, Click here to log in
機場資訊:EDDH Welcome to Taiwan Airways 台灣虛擬航空
ICAO: EDDH Country: 德國 漢堡
Latitude: 53.6304 Longitude: 9.98823
Total Arrivals: 4 Total Departures: 4
Latest Arrival: FS16 (LEPA-EDDH)CHU. CHUHAO Latest Departure: FS17 (EDDH-LKPR)CHU. CHUHAO
Scenery:
METAR : EDDH 141820Z 08008KT 9999 SCT041 15/12 Q1012 NOSIG

漢堡機場 HAM